Time;durP1;ratioP1;P1;durP2;ratioP2;P2;SDS_P1;SDS_P2;PMS_P1;PMS_P2;Temp;Humidity;BMP_temperature;BMP_pressure;BME280_temperature;BME280_humidity;BME280_pressure;Samples;Min_cycle;Max_cycle;Signal;HPM_P1;HPM_P2
2023/04/23 00:00:48;;;;;;;13.00;6.93;;;;;;;14.92;38.67;100016.56;5008292;28;20219;-63
2023/04/23 00:03:23;;;;;;;8.88;6.68;;;;;;;14.90;38.85;100010.56;5011729;28;20203;-63
2023/04/23 00:05:53;;;;;;;13.00;7.00;;;;;;;14.84;39.26;100010.75;5012655;28;20305;-63
2023/04/23 00:08:22;;;;;;;10.00;7.53;;;;;;;14.81;39.34;100012.59;5012559;28;20207;-62
2023/04/23 00:10:51;;;;;;;10.70;8.02;;;;;;;14.76;39.58;100010.09;5011944;28;20207;-64
2023/04/23 00:13:22;;;;;;;10.87;7.50;;;;;;;14.72;39.84;100013.69;5011685;28;20269;-64
2023/04/23 00:15:50;;;;;;;11.37;7.63;;;;;;;14.72;39.61;100011.09;5010002;28;20196;-63
2023/04/23 00:18:18;;;;;;;9.90;7.80;;;;;;;14.69;39.94;100006.00;5006537;28;20250;-63
2023/04/23 00:20:48;;;;;;;12.20;8.30;;;;;;;14.70;39.80;100015.50;5011987;28;20633;-63
2023/04/23 00:23:16;;;;;;;10.50;8.27;;;;;;;14.69;40.09;100006.88;5008685;28;20306;-66
2023/04/23 00:25:45;;;;;;;12.00;7.90;;;;;;;14.66;40.44;100006.09;5011987;28;20215;-64
2023/04/23 00:28:13;;;;;;;11.83;8.33;;;;;;;14.60;40.21;100001.94;5010777;28;20206;-63
2023/04/23 00:30:41;;;;;;;14.50;8.97;;;;;;;14.52;40.50;99997.88;5010539;28;20266;-63
2023/04/23 00:33:09;;;;;;;14.17;8.63;;;;;;;14.47;40.31;99996.22;5011448;28;20204;-66
2023/04/23 00:35:38;;;;;;;12.50;8.97;;;;;;;14.42;40.85;99999.81;5011309;28;20566;-63
2023/04/23 00:38:07;;;;;;;14.43;9.77;;;;;;;14.33;40.69;99998.34;5010110;28;20231;-67
2023/04/23 00:40:35;;;;;;;13.57;8.93;;;;;;;14.27;41.16;99993.31;5008802;28;21031;-59
2023/04/23 00:43:03;;;;;;;13.13;9.07;;;;;;;14.26;41.18;99997.66;5003650;28;20207;-59
2023/04/23 00:45:31;;;;;;;13.13;8.27;;;;;;;14.21;41.60;99991.75;5010415;28;20231;-59
2023/04/23 00:47:59;;;;;;;12.37;9.40;;;;;;;14.21;41.22;99994.34;5008590;28;20734;-59
2023/04/23 00:50:27;;;;;;;13.07;9.27;;;;;;;14.20;41.33;99999.56;5003453;28;20600;-59
2023/04/23 00:52:55;;;;;;;14.00;9.07;;;;;;;14.21;41.50;99994.34;5005731;28;20651;-59
2023/04/23 00:55:24;;;;;;;14.73;9.27;;;;;;;14.22;41.30;100001.22;5010544;28;20674;-58
2023/04/23 00:57:53;;;;;;;10.83;8.90;;;;;;;14.19;41.51;99996.13;5010730;28;20234;-58
2023/04/23 01:00:21;;;;;;;13.33;9.17;;;;;;;14.18;41.67;100001.38;5008939;28;20203;-59
2023/04/23 01:02:51;;;;;;;13.33;8.77;;;;;;;14.16;41.98;100000.53;5006727;28;20722;-59
2023/04/23 01:05:23;;;;;;;13.80;8.97;;;;;;;14.10;41.56;99996.38;5010543;28;20215;-63
2023/04/23 01:07:51;;;;;;;15.70;9.30;;;;;;;14.08;41.57;100002.50;5006433;28;20286;-60
2023/04/23 01:10:20;;;;;;;11.30;9.07;;;;;;;14.04;42.25;100001.72;5010617;28;20562;-58
2023/04/23 01:12:50;;;;;;;14.60;9.23;;;;;;;14.05;42.04;100002.56;5011432;28;20614;-58
2023/04/23 01:15:18;;;;;;;15.00;9.53;;;;;;;14.05;42.17;99999.97;5010532;28;20230;-58
2023/04/23 01:17:46;;;;;;;14.73;8.50;;;;;;;14.02;42.01;99995.72;5011359;28;20682;-59
2023/04/23 01:20:14;;;;;;;12.67;7.97;;;;;;;14.06;42.13;100010.28;5010449;28;20661;-59
2023/04/23 01:22:43;;;;;;;11.77;8.00;;;;;;;14.02;41.66;100001.75;5008689;28;20268;-63
2023/04/23 01:25:11;;;;;;;14.97;9.33;;;;;;;13.99;41.91;99998.38;5007089;28;20269;-58
2023/04/23 01:27:40;;;;;;;11.70;8.47;;;;;;;13.97;41.29;100000.19;5010855;28;20214;-58
2023/04/23 01:30:09;;;;;;;13.80;8.90;;;;;;;14.00;41.86;100000.94;5010128;28;20203;-58
2023/04/23 01:32:39;;;;;;;13.20;8.80;;;;;;;14.01;41.98;99997.47;5010382;28;20204;-62
2023/04/23 01:35:07;;;;;;;12.30;8.73;;;;;;;13.97;41.93;99995.00;5008188;28;20662;-59
2023/04/23 01:37:40;;;;;;;13.50;9.23;;;;;;;13.99;41.76;100003.56;5008481;28;20212;-61
2023/04/23 01:40:10;;;;;;;11.73;8.03;;;;;;;13.97;42.03;99998.44;5007416;28;20650;-59
2023/04/23 01:42:38;;;;;;;12.10;8.07;;;;;;;13.96;42.26;100003.69;5008513;28;20671;-58
2023/04/23 01:45:07;;;;;;;12.63;8.40;;;;;;;13.93;42.33;99999.41;5008519;28;20227;-58
2023/04/23 01:47:36;;;;;;;11.63;8.57;;;;;;;13.86;42.37;100008.22;5011524;28;20207;-59
2023/04/23 01:50:04;;;;;;;14.03;10.10;;;;;;;13.83;42.90;100000.53;5009595;28;20207;-59
2023/04/23 01:52:32;;;;;;;12.97;9.33;;;;;;;13.77;42.75;100005.84;5008605;28;20273;-58
2023/04/23 01:55:01;;;;;;;13.90;9.50;;;;;;;13.76;43.11;99999.84;5009681;28;20219;-59
2023/04/23 01:57:30;;;;;;;11.17;8.80;;;;;;;13.75;43.32;100002.47;5009679;28;20583;-60
2023/04/23 02:00:05;;;;;;;16.47;9.10;;;;;;;13.75;43.38;100005.06;5008905;28;20573;-59
2023/04/23 02:02:33;;;;;;;12.50;9.67;;;;;;;13.76;43.18;100007.59;5010651;28;20202;-57
2023/04/23 02:05:03;;;;;;;16.13;9.47;;;;;;;13.73;43.34;100002.53;5006952;28;20223;-59
2023/04/23 02:07:31;;;;;;;14.10;9.33;;;;;;;13.72;43.03;100010.31;5010819;28;20211;-60
2023/04/23 02:10:00;;;;;;;13.33;9.77;;;;;;;13.67;43.39;100001.81;5000000;28;20241;-62
2023/04/23 02:12:28;;;;;;;17.83;10.10;;;;;;;13.64;43.16;100007.06;5011469;28;20214;-60
2023/04/23 02:14:57;;;;;;;14.93;9.63;;;;;;;13.61;43.60;100004.56;5003715;28;20211;-59
2023/04/23 02:17:25;;;;;;;13.27;9.50;;;;;;;13.58;43.83;100010.66;5011126;28;20740;-58
2023/04/23 02:19:54;;;;;;;13.70;9.83;;;;;;;13.54;43.79;100002.09;5008651;28;20211;-61
2023/04/23 02:22:24;;;;;;;12.73;8.70;;;;;;;13.48;43.87;99997.09;5009856;28;20219;-60
2023/04/23 02:24:51;;;;;;;14.00;9.80;;;;;;;13.43;43.60;99998.94;5008660;28;20654;-59
2023/04/23 02:27:20;;;;;;;15.00;9.73;;;;;;;13.40;44.14;99998.16;5009011;28;20203;-63
2023/04/23 02:29:48;;;;;;;14.83;9.23;;;;;;;13.36;44.05;99997.38;5008989;28;20572;-59
2023/04/23 02:32:18;;;;;;;13.03;9.47;;;;;;;13.31;44.00;99998.38;5008265;28;20200;-62
2023/04/23 02:34:46;;;;;;;12.37;8.73;;;;;;;13.29;44.37;99995.81;5011134;28;20685;-58
2023/04/23 02:37:14;;;;;;;12.87;9.80;;;;;;;13.30;44.81;99989.78;5009470;28;20623;-60
2023/04/23 02:39:42;;;;;;;14.53;9.90;;;;;;;13.27;44.72;99992.44;5008308;28;20261;-58
2023/04/23 02:42:10;;;;;;;14.07;9.30;;;;;;;13.24;44.61;100002.84;5008910;28;20273;-58
2023/04/23 02:44:38;;;;;;;13.77;9.93;;;;;;;13.18;44.77;100000.34;5009223;28;22074;-60
2023/04/23 02:47:06;;;;;;;13.90;10.37;;;;;;;13.15;45.20;99990.94;5008136;28;20230;-59
2023/04/23 02:49:36;;;;;;;13.70;9.80;;;;;;;13.15;45.04;99997.88;5004577;28;20565;-60
2023/04/23 02:52:04;;;;;;;12.97;9.27;;;;;;;13.09;45.27;99990.22;5009263;28;20547;-58
2023/04/23 02:54:32;;;;;;;14.10;10.00;;;;;;;13.09;45.52;99998.00;5006315;28;20580;-58
2023/04/23 02:57:00;;;;;;;13.83;9.63;;;;;;;13.02;45.98;99992.94;5004319;28;20254;-63
2023/04/23 02:59:28;;;;;;;14.37;10.07;;;;;;;12.90;45.48;99977.72;5009814;28;20373;-58
2023/04/23 03:01:56;;;;;;;13.60;9.30;;;;;;;12.94;45.39;99981.06;5009893;28;20211;-60
2023/04/23 03:04:24;;;;;;;13.97;9.93;;;;;;;12.91;45.50;99992.34;5008624;28;20234;-58
2023/04/23 03:06:53;;;;;;;17.87;10.47;;;;;;;12.88;45.97;99997.56;5008605;28;20211;-57
2023/04/23 03:09:21;;;;;;;13.50;10.03;;;;;;;12.84;46.08;99990.75;5012215;28;20207;-58
2023/04/23 03:11:49;;;;;;;15.00;10.03;;;;;;;12.83;46.04;99994.25;5012890;28;20513;-58
2023/04/23 03:14:17;;;;;;;14.07;10.20;;;;;;;12.79;46.30;99987.44;5012071;28;20562;-58
2023/04/23 03:16:45;;;;;;;15.27;10.40;;;;;;;12.81;46.51;99996.00;5013918;28;20270;-64
2023/04/23 03:19:13;;;;;;;15.33;9.93;;;;;;;12.82;46.34;99989.97;5010416;28;20210;-60
2023/04/23 03:21:41;;;;;;;16.53;10.97;;;;;;;12.79;46.28;99990.03;5008174;28;20257;-59
2023/04/23 03:24:13;;;;;;;14.50;10.23;;;;;;;12.77;46.35;99982.28;5014101;28;20266;-58
2023/04/23 03:26:41;;;;;;;17.97;10.17;;;;;;;12.72;46.37;99983.28;5012211;28;20250;-60
2023/04/23 03:29:09;;;;;;;15.27;9.83;;;;;;;12.70;46.71;99990.19;5011570;28;20214;-60
2023/04/23 03:31:37;;;;;;;15.50;10.00;;;;;;;12.66;46.82;99988.56;5010761;28;20625;-62
2023/04/23 03:34:05;;;;;;;14.57;9.77;;;;;;;12.65;46.75;99986.88;5013904;28;20222;-59
2023/04/23 03:36:33;;;;;;;14.73;10.17;;;;;;;12.64;46.88;99982.59;5011107;28;20246;-58
2023/04/23 03:39:01;;;;;;;14.13;8.87;;;;;;;12.62;47.01;99984.34;5012126;28;20262;-61
2023/04/23 03:41:30;;;;;;;14.40;10.23;;;;;;;12.63;46.83;99983.47;5011555;28;20207;-58
2023/04/23 03:43:58;;;;;;;15.13;9.97;;;;;;;12.64;46.95;99988.63;5012449;28;21011;-59
2023/04/23 03:46:26;;;;;;;13.37;10.13;;;;;;;12.66;47.02;99988.56;5013114;28;20215;-59
2023/04/23 03:48:54;;;;;;;14.67;9.83;;;;;;;12.63;46.90;99980.88;5012320;28;20226;-59
2023/04/23 03:51:22;;;;;;;14.57;9.40;;;;;;;12.64;47.13;99982.59;5009907;28;20547;-58
2023/04/23 03:53:50;;;;;;;12.90;9.60;;;;;;;12.64;47.24;99986.03;5012456;28;20240;-59
2023/04/23 03:56:18;;;;;;;12.40;9.33;;;;;;;12.65;47.09;99981.72;5012845;28;20544;-59
2023/04/23 03:58:47;;;;;;;15.93;10.57;;;;;;;12.63;46.92;99978.28;5010107;28;20262;-58
2023/04/23 04:01:16;;;;;;;15.07;10.30;;;;;;;12.62;47.11;99976.59;5011847;28;20593;-68
2023/04/23 04:03:43;;;;;;;15.00;10.30;;;;;;;12.63;47.32;99984.34;5011698;28;20207;-60
2023/04/23 04:06:12;;;;;;;14.63;10.13;;;;;;;12.66;47.27;99985.97;5013520;28;20733;-58
2023/04/23 04:08:41;;;;;;;16.20;10.43;;;;;;;12.73;47.46;99990.16;5012667;28;20662;-58
2023/04/23 04:11:09;;;;;;;14.20;9.77;;;;;;;12.77;47.23;99991.78;5012052;28;20218;-61
2023/04/23 04:13:37;;;;;;;17.63;10.40;;;;;;;12.84;46.93;99995.09;5008931;28;20745;-59
2023/04/23 04:16:07;;;;;;;14.33;10.17;;;;;;;12.90;46.97;99993.22;5012191;28;20215;-59
2023/04/23 04:18:35;;;;;;;14.37;9.73;;;;;;;12.92;47.12;99991.44;5012070;28;20655;-62
2023/04/23 04:21:02;;;;;;;12.50;9.30;;;;;;;12.97;46.92;99999.97;5010466;28;20284;-58
2023/04/23 04:23:32;;;;;;;12.40;10.20;;;;;;;12.99;47.03;99989.56;5011907;28;20289;-60
2023/04/23 04:26:01;;;;;;;18.10;10.53;;;;;;;13.02;47.07;99994.69;5011984;28;20203;-60
2023/04/23 04:28:29;;;;;;;15.33;10.07;;;;;;;13.03;47.10;99986.91;5011213;28;20211;-61
2023/04/23 04:30:57;;;;;;;14.80;10.00;;;;;;;13.14;46.92;99994.41;5005082;28;20196;-59
2023/04/23 04:33:27;;;;;;;17.07;10.33;;;;;;;13.24;46.58;99993.34;5009349;28;20711;-58
2023/04/23 04:35:56;;;;;;;13.27;10.27;;;;;;;13.34;46.51;99988.81;5011362;28;20650;-64
2023/04/23 04:38:24;;;;;;;18.50;10.53;;;;;;;13.44;46.21;99992.88;5010142;28;20211;-60
2023/04/23 04:40:57;;;;;;;13.13;9.33;;;;;;;13.50;46.26;99984.94;5011489;28;20203;-58
2023/04/23 04:43:25;;;;;;;13.87;9.97;;;;;;;13.62;45.86;99988.97;5008525;28;20203;-58
2023/04/23 04:45:53;;;;;;;14.40;9.90;;;;;;;13.73;45.74;99994.75;5009971;28;20204;-64
2023/04/23 04:48:21;;;;;;;12.50;9.93;;;;;;;13.89;45.71;99992.63;5008954;28;20273;-64
2023/04/23 04:50:51;;;;;;;14.63;9.47;;;;;;;13.96;45.35;99994.16;5008396;28;20207;-63
2023/04/23 04:53:19;;;;;;;14.70;10.23;;;;;;;14.04;44.88;99996.53;5009665;28;20543;-64
2023/04/23 04:55:47;;;;;;;14.83;9.70;;;;;;;14.12;44.75;99993.75;5011162;28;20275;-64
2023/04/23 04:58:14;;;;;;;15.40;10.23;;;;;;;14.22;44.27;100001.22;5009847;28;20234;-63
2023/04/23 05:00:43;;;;;;;16.93;9.97;;;;;;;14.30;44.24;99992.41;5008615;28;20207;-65
2023/04/23 05:03:12;;;;;;;15.23;10.60;;;;;;;14.39;43.83;99986.94;5004683;28;20532;-64
2023/04/23 05:05:41;;;;;;;14.90;9.77;;;;;;;14.45;44.30;99987.63;5010285;28;20643;-65
2023/04/23 05:08:10;;;;;;;16.27;10.33;;;;;;;14.55;43.63;99987.41;5011177;28;20238;-64
2023/04/23 05:10:38;;;;;;;14.87;10.50;;;;;;;14.61;42.95;99988.06;5010614;28;20261;-64
2023/04/23 05:13:06;;;;;;;14.10;10.23;;;;;;;14.64;43.24;99989.72;5011491;28;20230;-64
2023/04/23 05:15:34;;;;;;;13.80;9.90;;;;;;;14.74;43.31;99993.75;5010476;28;20199;-64
2023/04/23 05:18:04;;;;;;;12.87;9.57;;;;;;;14.86;43.38;99993.38;5009637;28;20204;-64
2023/04/23 05:20:32;;;;;;;14.10;10.17;;;;;;;15.02;43.07;99990.31;5008380;28;20203;-64
2023/04/23 05:23:01;;;;;;;14.17;9.43;;;;;;;15.18;42.60;99986.38;5012200;28;20659;-64
2023/04/23 05:25:30;;;;;;;12.93;10.20;;;;;;;15.42;42.92;99985.56;5008520;28;20207;-63
2023/04/23 05:27:58;;;;;;;13.53;9.73;;;;;;;15.64;42.28;99983.13;5011104;28;20223;-64
2023/04/23 05:30:26;;;;;;;14.50;10.80;;;;;;;15.89;41.47;99982.31;5009281;28;20556;-67
2023/04/23 05:32:54;;;;;;;13.13;9.90;;;;;;;16.03;40.71;99985.31;5009099;28;20203;-67
2023/04/23 05:35:22;;;;;;;14.88;10.73;;;;;;;16.11;40.20;99988.47;5005616;28;20202;-64
2023/04/23 05:37:50;;;;;;;12.63;9.87;;;;;;;16.09;40.18;99981.63;5009190;28;20753;-64
2023/04/23 05:40:18;;;;;;;13.40;8.77;;;;;;;16.00;40.44;99980.19;5007817;28;20379;-68
2023/04/23 05:42:47;;;;;;;13.20;9.63;;;;;;;15.99;40.45;99977.66;5010904;28;20214;-64
2023/04/23 05:45:15;;;;;;;12.87;9.83;;;;;;;15.99;40.52;99977.66;5010220;28;20650;-69
2023/04/23 05:47:43;;;;;;;13.63;9.95;;;;;;;15.98;41.05;99986.34;5003499;28;20689;-63
2023/04/23 05:50:11;;;;;;;12.38;9.38;;;;;;;15.98;40.95;99983.75;5007944;28;20618;-64
2023/04/23 05:52:39;;;;;;;12.82;9.45;;;;;;;16.02;40.74;99980.16;5004850;28;20212;-64
2023/04/23 05:55:08;;;;;;;15.93;9.38;;;;;;;16.19;40.38;99970.00;5005188;28;20265;-65
2023/04/23 05:57:36;;;;;;;14.02;9.55;;;;;;;16.52;40.13;99974.88;5004492;28;20313;-64
2023/04/23 06:00:10;;;;;;;13.00;9.65;;;;;;;16.94;39.19;99979.38;5008873;28;20211;-65
2023/04/23 06:02:38;;;;;;;16.80;9.13;;;;;;;17.29;38.46;99973.63;5004943;28;20225;-65
2023/04/23 06:05:06;;;;;;;14.70;8.77;;;;;;;17.63;37.39;99970.50;5007308;28;20208;-66
2023/04/23 06:07:35;;;;;;;11.63;9.07;;;;;;;17.93;36.82;99966.69;5003999;28;20219;-63
2023/04/23 06:10:03;;;;;;;12.10;9.30;;;;;;;18.22;36.26;99968.84;5010837;28;20207;-63
2023/04/23 06:12:32;;;;;;;10.38;8.73;;;;;;;18.45;35.44;99975.69;5009536;28;20269;-63
2023/04/23 06:15:00;;;;;;;10.82;8.40;;;;;;;18.58;35.08;99965.53;5009962;28;20203;-67
2023/04/23 06:17:29;;;;;;;12.90;8.85;;;;;;;18.68;34.50;99966.78;4999971;28;20200;-64
2023/04/23 06:20:00;;;;;;;10.80;8.38;;;;;;;18.67;34.83;99962.50;5002768;28;20204;-64
2023/04/23 06:22:31;;;;;;;10.27;8.35;;;;;;;18.72;34.50;99971.00;5007229;28;20207;-64
2023/04/23 06:24:59;;;;;;;11.25;8.38;;;;;;;18.69;34.72;99967.63;5006784;28;20207;-65
2023/04/23 06:27:27;;;;;;;11.70;8.10;;;;;;;18.72;34.45;99977.97;5007635;28;20231;-65
2023/04/23 06:29:55;;;;;;;10.63;8.23;;;;;;;18.71;34.00;99979.75;5007905;28;20666;-65
2023/04/23 06:32:23;;;;;;;10.23;7.72;;;;;;;18.82;34.15;99974.88;5006762;28;20219;-64
2023/04/23 06:34:52;;;;;;;10.10;7.35;;;;;;;19.00;34.05;99972.28;5005139;28;20746;-64
2023/04/23 06:37:29;;;;;;;11.75;8.30;;;;;;;19.16;33.78;99975.03;5010886;28;20210;-64
2023/04/23 06:39:58;;;;;;;9.60;7.50;;;;;;;19.24;33.73;99965.06;5009600;28;20716;-65
2023/04/23 06:42:27;;;;;;;9.50;7.07;;;;;;;19.37;33.20;99970.50;5013647;28;20269;-65
2023/04/23 06:44:55;;;;;;;9.65;7.10;;;;;;;19.48;33.10;99961.25;5010415;28;20207;-67
2023/04/23 06:47:23;;;;;;;11.52;7.15;;;;;;;19.60;32.67;99966.78;5005618;28;20231;-64
2023/04/23 06:49:53;;;;;;;7.82;6.47;;;;;;;19.83;31.93;99966.50;5014665;28;20961;-68
2023/04/23 06:52:21;;;;;;;11.93;7.22;;;;;;;19.95;32.05;99959.78;5015226;28;20262;-64
2023/04/23 06:54:49;;;;;;;9.90;7.32;;;;;;;20.00;32.37;99965.63;5010004;28;20952;-67
2023/04/23 06:57:17;;;;;;;12.70;7.53;;;;;;;20.20;32.16;99964.59;5013273;28;20261;-67
2023/04/23 06:59:45;;;;;;;8.85;6.75;;;;;;;20.23;32.04;99957.41;5011844;28;20253;-66
2023/04/23 07:02:13;;;;;;;9.45;7.03;;;;;;;20.26;32.11;99952.03;5013243;28;20520;-65
2023/04/23 07:04:41;;;;;;;12.38;7.22;;;;;;;20.38;32.11;99962.78;5012715;28;20243;-68
2023/04/23 07:07:11;;;;;;;8.48;6.53;;;;;;;20.48;31.86;99961.34;5013194;28;20215;-70
2023/04/23 07:09:39;;;;;;;8.73;6.10;;;;;;;20.61;31.39;99954.53;5011983;28;20664;-68
2023/04/23 07:12:07;;;;;;;9.00;5.85;;;;;;;20.79;31.35;99962.31;5012962;28;20207;-71
2023/04/23 07:14:35;;;;;;;7.45;5.68;;;;;;;20.99;31.13;99954.22;5012962;28;20258;-70
2023/04/23 07:17:03;;;;;;;9.20;6.50;;;;;;;21.11;30.46;99950.91;5006468;28;20215;-69
2023/04/23 07:19:32;;;;;;;10.45;5.90;;;;;;;21.16;30.59;99948.84;5010916;28;20209;-71
2023/04/23 07:22:00;;;;;;;9.90;6.97;;;;;;;21.25;30.44;99955.38;5012501;28;20207;-71
2023/04/23 07:24:29;;;;;;;8.85;6.47;;;;;;;21.20;30.02;99950.34;5012420;28;20235;-69
2023/04/23 07:26:58;;;;;;;8.57;6.63;;;;;;;21.08;30.46;99952.84;5013377;28;20211;-72
2023/04/23 07:29:26;;;;;;;10.07;6.65;;;;;;;21.13;30.67;99950.78;5010174;28;20593;-71
2023/04/23 07:31:55;;;;;;;9.02;6.88;;;;;;;21.15;30.71;99935.84;5010649;28;20208;-69
2023/04/23 07:34:23;;;;;;;7.20;5.85;;;;;;;21.24;30.48;99945.78;5012376;28;20206;-71
2023/04/23 07:36:51;;;;;;;7.80;5.30;;;;;;;21.45;30.26;99944.59;5007847;28;20210;-70
2023/04/23 07:39:19;;;;;;;7.63;5.43;;;;;;;21.55;29.45;99938.81;5011200;28;20230;-73
2023/04/23 07:41:49;;;;;;;8.73;5.93;;;;;;;21.65;28.64;99939.94;5011387;28;20254;-72
2023/04/23 07:44:18;;;;;;;7.13;5.50;;;;;;;21.66;28.77;99932.00;5011896;28;20226;-72
2023/04/23 07:46:46;;;;;;;7.43;5.28;;;;;;;21.67;28.43;99933.69;5008698;28;20745;-73
2023/04/23 07:49:14;;;;;;;7.65;5.32;;;;;;;21.75;29.00;99932.38;5012045;28;20265;-74
2023/04/23 07:51:42;;;;;;;10.65;5.50;;;;;;;21.95;28.94;99932.88;5010074;28;20715;-69
2023/04/23 07:54:11;;;;;;;7.28;4.22;;;;;;;22.22;27.75;99929.53;5012154;28;20206;-70
2023/04/23 07:56:39;;;;;;;6.43;4.63;;;;;;;22.41;27.30;99935.31;5021728;28;20219;-69
2023/04/23 07:59:11;;;;;;;7.13;5.43;;;;;;;22.59;27.11;99941.22;5010976;28;20199;-69
2023/04/23 08:01:40;;;;;;;6.20;4.35;;;;;;;22.66;26.88;99934.63;5010493;28;20233;-72
2023/04/23 08:04:08;;;;;;;6.53;4.80;;;;;;;22.82;26.57;99934.50;5005519;28;20286;-70
2023/04/23 08:06:37;;;;;;;5.05;4.40;;;;;;;22.99;26.62;99936.06;5003952;28;20258;-67
2023/04/23 08:09:05;;;;;;;8.32;4.68;;;;;;;23.02;25.24;99928.00;5012299;28;20211;-68
2023/04/23 08:11:33;;;;;;;6.55;4.65;;;;;;;22.98;25.35;99933.56;5011702;28;20199;-71
2023/04/23 08:14:01;;;;;;;5.00;4.30;;;;;;;22.87;25.28;99924.56;5008056;28;20199;-72
2023/04/23 08:16:30;;;;;;;5.70;4.70;;;;;;;22.86;25.47;99927.25;5008919;28;20203;-63
2023/04/23 08:18:58;;;;;;;6.22;4.07;;;;;;;22.79;25.57;99924.22;5009783;28;20871;-66
2023/04/23 08:21:33;;;;;;;6.13;4.50;;;;;;;22.75;25.83;99929.72;5009716;28;20297;-66
2023/04/23 08:24:02;;;;;;;6.07;3.85;;;;;;;22.89;26.14;99913.94;5004506;28;20656;-67
2023/04/23 08:26:30;;;;;;;5.78;3.90;;;;;;;23.01;24.18;99918.41;5000978;28;20211;-62
2023/04/23 08:28:59;;;;;;;10.20;4.15;;;;;;;23.10;25.17;99917.81;5011042;28;20683;-64
2023/04/23 08:31:27;;;;;;;6.05;3.92;;;;;;;23.22;24.84;99915.31;5008622;28;20676;-64
2023/04/23 08:33:56;;;;;;;3.90;3.30;;;;;;;23.15;24.61;99910.47;5010613;28;20235;-65
2023/04/23 08:36:25;;;;;;;4.15;3.40;;;;;;;23.24;24.58;99916.09;5009747;28;20207;-65
2023/04/23 08:38:53;;;;;;;7.68;3.30;;;;;;;23.30;22.65;99908.59;5009758;28;20230;-64
2023/04/23 08:41:23;;;;;;;4.00;3.05;;;;;;;23.23;22.68;99914.38;5006199;28;20269;-64
2023/04/23 08:43:55;;;;;;;5.78;3.63;;;;;;;23.14;23.10;99908.78;5002350;28;20226;-65
2023/04/23 08:46:24;;;;;;;7.68;3.78;;;;;;;23.23;23.97;99917.84;5007213;28;20572;-65
2023/04/23 08:48:53;;;;;;;4.10;3.28;;;;;;;23.44;23.75;99905.06;5010568;28;20341;-66
2023/04/23 08:51:26;;;;;;;6.15;3.80;;;;;;;23.52;22.46;99899.28;5008190;28;20211;-66
2023/04/23 08:53:58;;;;;;;3.42;3.10;;;;;;;23.63;22.38;99899.41;5009590;28;20203;-70
2023/04/23 08:56:27;;;;;;;3.80;3.40;;;;;;;23.57;22.13;99889.31;5008726;28;20616;-69
2023/04/23 08:58:56;;;;;;;4.53;3.28;;;;;;;23.56;22.38;99888.44;5010748;28;20636;-68
2023/04/23 09:01:24;;;;;;;4.30;3.30;;;;;;;23.80;22.59;99891.22;5006094;28;20207;-70
2023/04/23 09:03:53;;;;;;;3.50;2.95;;;;;;;24.00;22.32;99881.94;4999628;28;20302;-70
2023/04/23 09:06:23;;;;;;;4.68;3.30;;;;;;;24.12;21.95;99885.53;4999279;28;20218;-71
2023/04/23 09:08:52;;;;;;;4.10;2.95;;;;;;;24.11;21.89;99884.66;4997112;28;20219;-70
2023/04/23 09:11:23;;;;;;;3.42;3.10;;;;;;;24.14;22.18;99890.66;5006306;28;20683;-69
2023/04/23 09:13:51;;;;;;;5.65;2.80;;;;;;;24.20;21.48;99874.44;5008810;28;20572;-69
2023/04/23 09:16:19;;;;;;;6.28;3.08;;;;;;;24.31;21.84;99879.78;5008077;28;20261;-70
2023/04/23 09:18:48;;;;;;;4.95;3.17;;;;;;;24.50;22.03;99880.19;5007701;28;20246;-70
2023/04/23 09:21:16;;;;;;;3.95;3.13;;;;;;;24.70;21.34;99877.88;4999085;28;20208;-70
2023/04/23 09:23:46;;;;;;;4.93;2.95;;;;;;;24.85;21.34;99879.41;5008559;28;20246;-69
2023/04/23 09:26:19;;;;;;;5.75;2.90;;;;;;;25.34;20.69;99873.16;4998418;28;20223;-67
2023/04/23 09:28:50;;;;;;;3.13;2.83;;;;;;;27.25;19.46;99878.25;5006951;28;20208;-69
2023/04/23 09:31:21;;;;;;;4.15;3.20;;;;;;;29.73;16.40;99866.81;5006297;28;20458;-67
2023/04/23 09:33:54;;;;;;;3.83;3.35;;;;;;;32.50;15.12;99859.47;5008583;28;20265;-68
2023/04/23 09:36:22;;;;;;;5.38;3.22;;;;;;;34.72;13.14;99864.16;5006630;28;20203;-71
2023/04/23 09:38:56;;;;;;;5.03;3.22;;;;;;;36.75;11.22;99854.91;5008291;28;20684;-67
2023/04/23 09:41:25;;;;;;;3.58;2.90;;;;;;;36.89;10.69;99855.00;5006664;28;20207;-70
2023/04/23 09:43:53;;;;;;;2.92;2.63;;;;;;;37.43;10.97;99852.59;5004400;28;20222;-69
2023/04/23 09:46:35;;;;;;;9.38;3.10;;;;;;;38.32;10.84;99846.38;5003958;28;20736;-72
2023/04/23 09:49:06;;;;;;;3.08;2.78;;;;;;;39.48;9.68;99850.66;5006443;28;20203;-74
2023/04/23 09:51:36;;;;;;;2.65;2.45;;;;;;;40.15;9.06;99848.59;5004621;28;20257;-73
2023/04/23 09:54:11;;;;;;;3.25;2.92;;;;;;;40.24;8.78;99840.00;5001393;28;20230;-73
2023/04/23 09:56:39;;;;;;;4.45;2.80;;;;;;;40.30;9.25;99836.44;4996856;28;20203;-73
2023/04/23 09:59:21;;;;;;;3.45;2.60;;;;;;;40.32;8.71;99837.06;5001260;28;20598;-75
2023/04/23 10:02:10;;;;;;;3.13;2.38;;;;;;;40.38;8.43;99834.53;5007776;28;20651;-71
2023/04/23 10:04:39;;;;;;;2.78;2.58;;;;;;;40.65;9.12;99830.63;5004282;28;20238;-72
2023/04/23 10:07:12;;;;;;;3.88;3.00;;;;;;;41.03;9.04;99827.03;5006179;28;20574;-72
2023/04/23 10:09:44;;;;;;;3.13;2.65;;;;;;;41.23;7.91;99824.94;5008765;28;20223;-73
2023/04/23 10:12:14;;;;;;;4.40;2.38;;;;;;;40.96;8.19;99821.66;5006087;28;20199;-69
2023/04/23 10:14:48;;;;;;;3.03;2.75;;;;;;;40.92;8.44;99812.34;5006256;28;20634;-72
2023/04/23 10:17:16;;;;;;;3.60;2.47;;;;;;;40.80;8.22;99817.63;5006632;28;20537;-71
2023/04/23 10:19:45;;;;;;;3.05;2.25;;;;;;;39.87;8.37;99817.31;5008751;28;20206;-71
2023/04/23 10:22:19;;;;;;;4.28;2.35;;;;;;;38.54;9.09;99806.69;5007642;28;20257;-71
2023/04/23 10:24:54;;;;;;;3.63;2.85;;;;;;;37.67;9.08;99810.09;5009835;28;20249;-72
2023/04/23 10:27:26;;;;;;;4.72;3.10;;;;;;;37.91;10.26;99812.31;5006921;28;20207;-71
2023/04/23 10:30:15;;;;;;;2.78;2.40;;;;;;;37.43;9.40;99801.50;5007342;28;20323;-70
2023/04/23 10:32:44;;;;;;;4.13;2.70;;;;;;;37.27;9.74;99799.13;5008447;28;20585;-70
2023/04/23 10:35:12;;;;;;;3.45;2.38;;;;;;;36.84;10.28;99796.50;5007601;28;20676;-71
2023/04/23 10:37:41;;;;;;;2.90;2.20;;;;;;;35.96;9.99;99795.78;5005325;28;20250;-73
2023/04/23 10:40:14;;;;;;;3.83;2.60;;;;;;;35.23;11.19;99799.31;5005819;28;20207;-67
2023/04/23 10:42:44;;;;;;;4.00;2.50;;;;;;;34.81;11.94;99800.69;4999119;28;20285;-68
2023/04/23 10:45:14;;;;;;;3.60;2.30;;;;;;;34.35;11.32;99800.66;5007559;28;20203;-70
2023/04/23 10:47:57;;;;;;;2.65;2.28;;;;;;;33.81;11.68;99792.63;5007087;28;20203;-70
2023/04/23 10:50:27;;;;;;;2.45;2.15;;;;;;;32.74;12.02;99799.13;5008087;28;20717;-70
2023/04/23 10:52:56;;;;;;;5.43;2.53;;;;;;;31.99;13.00;99790.13;5007040;28;20261;-70
2023/04/23 10:55:28;;;;;;;4.47;2.47;;;;;;;31.92;13.17;99789.09;5003104;28;20203;-71
2023/04/23 10:58:01;;;;;;;2.28;2.08;;;;;;;31.73;12.95;99779.53;4999940;28;20576;-70
2023/04/23 11:00:44;;;;;;;3.15;2.30;;;;;;;31.37;12.71;99773.56;4992163;28;20208;-70
2023/04/23 11:03:30;;;;;;;3.00;2.50;;;;;;;30.69;13.39;99782.16;5000848;28;20298;-70
2023/04/23 11:06:02;;;;;;;4.43;2.25;;;;;;;30.38;14.00;99784.38;5005053;28;20211;-70
2023/04/23 11:08:31;;;;;;;6.05;2.75;;;;;;;30.52;14.09;99777.69;5010064;28;20207;-70
2023/04/23 11:11:02;;;;;;;3.17;2.50;;;;;;;30.76;13.81;99775.28;5005811;28;20223;-71
2023/04/23 11:13:30;;;;;;;4.63;2.58;;;;;;;30.67;13.79;99775.31;5008690;28;20203;-71
2023/04/23 11:16:17;;;;;;;2.72;2.47;;;;;;;30.50;13.68;99779.69;5010759;28;20211;-71
2023/04/23 11:19:01;;;;;;;6.88;2.92;;;;;;;30.33;14.11;99773.34;5000874;28;20203;-64
2023/04/23 11:21:58;;;;;;;2.60;2.40;;;;;;;30.32;14.38;99769.03;5001139;28;20218;-68
2023/04/23 11:24:28;;;;;;;3.03;2.22;;;;;;;30.26;13.98;99756.34;5005560;28;20235;-68
2023/04/23 11:26:58;;;;;;;4.45;2.88;;;;;;;29.95;14.55;99761.16;5008862;28;20203;-73
2023/04/23 11:29:27;;;;;;;2.78;2.42;;;;;;;29.75;15.54;99758.59;5006319;28;20227;-67
2023/04/23 11:31:56;;;;;;;6.95;2.50;;;;;;;29.58;15.99;99762.88;5010760;28;20219;-68
2023/04/23 11:34:31;;;;;;;5.13;3.33;;;;;;;29.25;16.34;99761.56;5010984;28;20450;-63
2023/04/23 11:37:01;;;;;;;3.10;2.80;;;;;;;28.96;15.61;99751.00;5005350;28;20203;-68